createdAt,value
2022-08-18T00:02:18.097Z,7.40
2022-08-18T00:04:49.678Z,7.82
2022-08-18T00:07:22.847Z,7.60
2022-08-18T00:09:52.753Z,7.53
2022-08-18T00:12:23.021Z,8.10
2022-08-18T00:14:51.827Z,7.15
2022-08-18T00:17:20.146Z,7.50
2022-08-18T00:19:48.559Z,7.72
2022-08-18T00:22:19.533Z,6.30
2022-08-18T00:24:50.493Z,6.50
2022-08-18T00:27:23.704Z,6.03
2022-08-18T00:29:56.261Z,5.68
2022-08-18T00:32:26.512Z,6.22
2022-08-18T00:34:55.846Z,7.68
2022-08-18T00:37:25.450Z,5.72
2022-08-18T00:39:54.380Z,6.85
2022-08-18T00:42:30.775Z,7.43
2022-08-18T00:45:05.141Z,7.13
2022-08-18T00:47:42.416Z,6.63
2022-08-18T00:50:15.464Z,4.95
2022-08-18T00:55:14.930Z,6.03
2022-08-18T00:57:45.397Z,4.68
2022-08-18T01:00:15.345Z,5.75
2022-08-18T01:02:48.816Z,5.30
2022-08-18T01:05:22.671Z,5.57
2022-08-18T01:07:51.373Z,4.60
2022-08-18T01:10:22.582Z,6.13
2022-08-18T01:12:54.972Z,7.72
2022-08-18T01:15:27.759Z,6.90
2022-08-18T01:18:16.080Z,6.07
2022-08-18T01:21:13.060Z,3.70
2022-08-18T01:23:42.765Z,4.50
2022-08-18T01:26:10.204Z,5.70
2022-08-18T01:28:41.303Z,6.43
2022-08-18T01:31:11.004Z,6.35
2022-08-18T01:33:42.622Z,5.28
2022-08-18T01:36:16.954Z,4.53
2022-08-18T01:38:50.205Z,5.90
2022-08-18T01:41:26.042Z,4.72
2022-08-18T01:43:56.325Z,6.90
2022-08-18T01:46:25.192Z,6.65
2022-08-18T01:48:53.732Z,7.22
2022-08-18T01:51:38.935Z,6.30
2022-08-18T01:54:12.946Z,5.57
2022-08-18T01:56:43.052Z,5.50
2022-08-18T01:59:14.552Z,5.00
2022-08-18T02:01:50.595Z,5.57
2022-08-18T02:04:40.581Z,5.03
2022-08-18T02:07:11.514Z,4.65
2022-08-18T02:09:43.335Z,4.20
2022-08-18T02:12:14.394Z,5.90
2022-08-18T02:14:45.160Z,5.43
2022-08-18T02:17:15.307Z,4.30
2022-08-18T02:19:46.939Z,4.28
2022-08-18T02:22:17.730Z,6.00
2022-08-18T02:24:47.675Z,3.90
2022-08-18T02:27:17.049Z,6.75
2022-08-18T02:29:46.111Z,7.78
2022-08-18T02:32:14.400Z,5.75
2022-08-18T02:34:42.898Z,4.43
2022-08-18T02:37:15.014Z,4.07
2022-08-18T02:42:14.925Z,5.30
2022-08-18T02:44:43.113Z,4.25
2022-08-18T02:47:11.449Z,5.80
2022-08-18T02:49:39.898Z,4.70
2022-08-18T02:52:09.631Z,4.05
2022-08-18T02:54:37.728Z,4.45
2022-08-18T02:57:10.847Z,5.20
2022-08-18T02:59:41.847Z,8.32
2022-08-18T03:02:15.548Z,6.28
2022-08-18T03:04:43.638Z,4.70
2022-08-18T03:07:12.001Z,4.45
2022-08-18T03:09:40.097Z,5.55
2022-08-18T03:12:09.669Z,4.20
2022-08-18T03:14:40.072Z,5.47
2022-08-18T03:17:11.084Z,4.80
2022-08-18T03:19:39.711Z,5.38
2022-08-18T03:24:52.435Z,5.95
2022-08-18T03:27:20.582Z,5.20
2022-08-18T03:29:51.442Z,5.22
2022-08-18T03:32:21.269Z,4.20
2022-08-18T03:34:49.526Z,5.50
2022-08-18T03:37:18.730Z,7.28
2022-08-18T03:39:46.996Z,7.47
2022-08-18T03:42:20.111Z,7.28
2022-08-18T03:47:35.604Z,5.03
2022-08-18T03:50:07.119Z,6.10
2022-08-18T03:52:42.083Z,5.50
2022-08-18T03:55:10.727Z,6.82
2022-08-18T03:57:39.355Z,6.20
2022-08-18T04:00:27.766Z,7.72
2022-08-18T04:03:15.878Z,5.47
2022-08-18T04:05:50.198Z,6.03
2022-08-18T04:08:18.437Z,5.75
2022-08-18T04:10:46.820Z,5.57
2022-08-18T04:13:15.145Z,6.72
2022-08-18T04:15:43.258Z,5.70
2022-08-18T04:18:12.185Z,8.30
2022-08-18T04:20:59.221Z,6.28
2022-08-18T04:23:28.163Z,6.68
2022-08-18T04:25:58.975Z,5.82
2022-08-18T04:28:30.777Z,10.68
2022-08-18T04:30:59.502Z,6.55
2022-08-18T04:33:28.493Z,7.30
2022-08-18T04:35:58.165Z,5.82
2022-08-18T04:38:26.433Z,5.40
2022-08-18T04:40:54.501Z,6.25
2022-08-18T04:43:22.603Z,6.90
2022-08-18T04:45:51.389Z,6.32
2022-08-18T04:48:19.528Z,7.05
2022-08-18T04:50:50.912Z,8.10
2022-08-18T04:53:37.166Z,8.05
2022-08-18T04:56:05.577Z,10.73
2022-08-18T04:58:35.535Z,6.35
2022-08-18T05:01:03.842Z,7.82
2022-08-18T05:03:32.324Z,6.53
2022-08-18T05:06:00.798Z,11.63
2022-08-18T05:08:30.218Z,8.88
2022-08-18T05:11:03.803Z,8.68
2022-08-18T05:13:32.503Z,9.43
2022-08-18T05:16:18.183Z,11.00
2022-08-18T05:18:48.868Z,7.95
2022-08-18T05:21:19.245Z,11.40
2022-08-18T05:23:51.150Z,9.32
2022-08-18T05:26:20.247Z,11.80
2022-08-18T05:28:48.579Z,8.30
2022-08-18T05:31:25.362Z,9.55
2022-08-18T05:33:55.619Z,10.60
2022-08-18T05:36:51.807Z,12.38
2022-08-18T05:39:25.398Z,10.05
2022-08-18T05:41:56.493Z,14.02
2022-08-18T05:44:27.740Z,14.15
2022-08-18T05:46:58.567Z,17.75
2022-08-18T05:49:28.182Z,18.13
2022-08-18T05:51:59.966Z,26.67
2022-08-18T05:54:55.512Z,21.53
2022-08-18T05:57:26.124Z,16.05
2022-08-18T05:59:56.080Z,16.40
2022-08-18T06:02:32.680Z,15.27
2022-08-18T06:05:04.144Z,14.57
2022-08-18T06:07:36.882Z,15.00
2022-08-18T06:12:43.388Z,13.63
2022-08-18T06:15:18.057Z,14.90
2022-08-18T06:18:08.659Z,13.70
2022-08-18T06:20:54.862Z,14.88
2022-08-18T06:23:34.386Z,19.33
2022-08-18T06:26:13.924Z,15.10
2022-08-18T06:28:53.605Z,18.45
2022-08-18T06:31:29.656Z,18.92
2022-08-18T06:34:09.050Z,16.90
2022-08-18T06:36:46.737Z,15.48
2022-08-18T06:39:23.786Z,13.27
2022-08-18T06:41:54.177Z,13.02
2022-08-18T06:44:31.440Z,10.73
2022-08-18T06:47:04.682Z,9.88
2022-08-18T06:49:41.018Z,12.65
2022-08-18T06:52:29.137Z,10.68
2022-08-18T06:54:59.059Z,11.02
2022-08-18T06:57:33.427Z,10.55
2022-08-18T07:00:07.570Z,9.05
2022-08-18T07:02:47.512Z,8.52
2022-08-18T07:05:27.348Z,9.68
2022-08-18T07:08:15.963Z,9.63
2022-08-18T07:10:48.464Z,11.13
2022-08-18T07:13:22.372Z,9.38
2022-08-18T07:15:51.828Z,10.50
2022-08-18T07:18:26.417Z,11.85
2022-08-18T07:20:57.279Z,9.05
2022-08-18T07:23:29.235Z,9.63
2022-08-18T07:26:09.498Z,9.15
2022-08-18T07:28:41.820Z,9.70
2022-08-18T07:31:35.074Z,9.75
2022-08-18T07:34:08.438Z,9.43
2022-08-18T07:36:47.414Z,8.25
2022-08-18T07:39:21.553Z,9.65
2022-08-18T07:41:53.486Z,8.05
2022-08-18T07:44:27.463Z,9.15
2022-08-18T07:47:00.683Z,8.18
2022-08-18T07:49:33.422Z,7.95
2022-08-18T07:52:07.139Z,9.35
2022-08-18T07:55:02.605Z,7.65
2022-08-18T07:57:42.220Z,9.55
2022-08-18T08:00:55.276Z,7.55
2022-08-18T08:03:31.951Z,10.25
2022-08-18T08:06:09.584Z,9.75
2022-08-18T08:08:43.163Z,10.82
2022-08-18T08:11:23.286Z,8.75
2022-08-18T08:14:07.169Z,8.35
2022-08-18T08:16:46.293Z,9.07
2022-08-18T08:19:59.915Z,7.57
2022-08-18T08:22:35.887Z,7.60
2022-08-18T08:25:28.323Z,7.10
2022-08-18T08:28:09.287Z,7.65
2022-08-18T08:30:44.403Z,9.13
2022-08-18T08:33:24.685Z,7.35
2022-08-18T08:35:59.016Z,7.53
2022-08-18T08:38:42.725Z,8.95
2022-08-18T08:41:19.501Z,7.88
2022-08-18T08:43:54.447Z,7.95
2022-08-18T08:46:25.519Z,7.50
2022-08-18T08:49:04.404Z,6.47
2022-08-18T08:51:37.782Z,7.65
2022-08-18T08:54:11.308Z,8.00
2022-08-18T08:56:45.074Z,8.48
2022-08-18T08:59:24.093Z,6.82
2022-08-18T09:02:04.348Z,7.60
2022-08-18T09:04:54.135Z,7.68
2022-08-18T09:07:50.999Z,7.90
2022-08-18T09:10:39.787Z,7.93
2022-08-18T09:13:34.552Z,7.68
2022-08-18T09:16:30.983Z,7.10
2022-08-18T09:19:17.914Z,6.00
2022-08-18T09:21:54.114Z,5.75
2022-08-18T09:24:28.996Z,7.78
2022-08-18T09:27:16.797Z,7.25
2022-08-18T09:29:52.900Z,9.43
2022-08-18T09:32:53.892Z,7.05
2022-08-18T09:35:54.676Z,7.15
2022-08-18T09:38:46.092Z,7.25
2022-08-18T09:41:35.195Z,6.30
2022-08-18T09:44:21.559Z,7.72
2022-08-18T09:46:57.921Z,6.50
2022-08-18T09:49:47.778Z,10.02
2022-08-18T09:52:56.085Z,11.85
2022-08-18T09:55:59.091Z,8.57
2022-08-18T09:58:58.774Z,7.97
2022-08-18T10:01:38.140Z,8.60
2022-08-18T10:04:29.379Z,6.72
2022-08-18T10:07:17.662Z,7.57
2022-08-18T10:10:00.801Z,8.85
2022-08-18T10:12:40.730Z,6.28
2022-08-18T10:15:35.741Z,8.30
2022-08-18T10:18:35.654Z,7.38
2022-08-18T10:21:12.975Z,5.93
2022-08-18T10:24:31.799Z,6.55
2022-08-18T10:27:33.460Z,6.65
2022-08-18T10:30:06.705Z,7.10
2022-08-18T10:32:54.478Z,7.45
2022-08-18T10:38:36.908Z,7.32
2022-08-18T10:41:15.958Z,8.27
2022-08-18T10:43:55.608Z,6.32
2022-08-18T10:46:32.553Z,6.82
2022-08-18T10:49:17.674Z,10.90
2022-08-18T10:52:09.723Z,5.85
2022-08-18T10:55:02.325Z,6.30
2022-08-18T10:57:47.753Z,7.72
2022-08-18T11:00:19.787Z,9.00
2022-08-18T11:03:40.117Z,11.60
2022-08-18T11:06:22.134Z,7.30
2022-08-18T11:08:59.059Z,5.63
2022-08-18T11:11:39.399Z,8.80
2022-08-18T11:14:24.265Z,5.28
2022-08-18T11:17:02.719Z,5.50
2022-08-18T11:19:41.914Z,6.93
2022-08-18T11:22:31.141Z,6.80
2022-08-18T11:25:00.679Z,7.30
2022-08-18T11:27:30.450Z,7.68
2022-08-18T11:30:01.632Z,8.75
2022-08-18T11:32:34.816Z,7.25
2022-08-18T11:35:08.026Z,8.70
2022-08-18T11:37:51.461Z,8.68
2022-08-18T11:43:38.998Z,7.50
2022-08-18T11:46:16.905Z,6.63
2022-08-18T11:48:52.427Z,8.02
2022-08-18T11:51:27.079Z,6.95
2022-08-18T11:54:00.146Z,7.18
2022-08-18T12:02:25.261Z,5.15
2022-08-18T12:04:55.218Z,7.22
2022-08-18T12:07:32.950Z,5.63
2022-08-18T12:10:19.308Z,6.90
2022-08-18T12:12:51.984Z,6.70
2022-08-18T12:15:29.619Z,9.88
2022-08-18T12:18:18.914Z,6.32
2022-08-18T12:23:52.516Z,7.60
2022-08-18T12:29:11.159Z,6.38
2022-08-18T12:31:47.698Z,7.72
2022-08-18T12:34:16.571Z,7.18
2022-08-18T12:36:46.398Z,6.63
2022-08-18T12:39:15.903Z,7.60
2022-08-18T12:41:44.124Z,6.97
2022-08-18T12:44:13.024Z,6.72
2022-08-18T12:46:42.994Z,6.55
2022-08-18T12:49:16.168Z,7.78
2022-08-18T12:51:44.641Z,5.72
2022-08-18T12:54:13.031Z,10.00
2022-08-18T12:56:45.095Z,6.63
2022-08-18T12:59:13.088Z,8.90
2022-08-18T13:01:42.303Z,7.25
2022-08-18T13:04:13.834Z,7.70
2022-08-18T13:07:00.261Z,8.00
2022-08-18T13:09:35.371Z,8.98
2022-08-18T13:12:14.956Z,7.30
2022-08-18T13:14:44.130Z,9.68
2022-08-18T13:17:32.968Z,7.03
2022-08-18T13:20:01.130Z,6.43
2022-08-18T13:22:32.314Z,9.10
2022-08-18T13:25:01.552Z,8.57
2022-08-18T13:27:35.203Z,8.02
2022-08-18T13:30:29.745Z,6.97
2022-08-18T13:32:59.432Z,7.90
2022-08-18T13:35:37.951Z,9.55
2022-08-18T13:38:15.723Z,8.10
2022-08-18T13:40:49.394Z,7.82
2022-08-18T13:43:23.477Z,6.65
2022-08-18T13:45:53.257Z,9.02
2022-08-18T13:50:53.851Z,6.93
2022-08-18T13:53:26.206Z,7.47
2022-08-18T13:55:54.780Z,9.75
2022-08-18T13:58:24.218Z,9.30
2022-08-18T14:00:53.915Z,10.30
2022-08-18T14:03:31.015Z,8.52
2022-08-18T14:06:13.294Z,7.55
2022-08-18T14:08:42.316Z,6.88
2022-08-18T14:11:10.670Z,9.23
2022-08-18T14:13:46.968Z,8.38
2022-08-18T14:16:19.462Z,9.98
2022-08-18T14:19:09.494Z,12.38
2022-08-18T14:21:59.608Z,9.13
2022-08-18T14:24:48.889Z,11.88
2022-08-18T14:27:17.963Z,9.10
2022-08-18T14:29:48.833Z,8.65
2022-08-18T14:32:28.631Z,9.93
2022-08-18T14:35:00.165Z,10.70
2022-08-18T14:37:30.205Z,11.10
2022-08-18T14:39:58.533Z,9.90
2022-08-18T14:42:41.436Z,10.10
2022-08-18T14:45:26.341Z,10.90
2022-08-18T14:48:00.120Z,9.73
2022-08-18T14:50:28.394Z,9.80
2022-08-18T14:53:15.103Z,11.98
2022-08-18T14:56:03.573Z,12.07
2022-08-18T14:58:52.464Z,12.13
2022-08-18T15:01:35.958Z,12.02
2022-08-18T15:04:18.611Z,12.93
2022-08-18T15:06:55.731Z,11.43
2022-08-18T15:09:26.828Z,11.52
2022-08-18T15:11:58.062Z,13.95
2022-08-18T15:14:33.526Z,11.52
2022-08-18T15:17:13.210Z,13.18
2022-08-18T15:20:00.179Z,15.57
2022-08-18T15:22:47.766Z,15.73
2022-08-18T15:25:33.374Z,14.23
2022-08-18T15:28:01.724Z,15.95
2022-08-18T15:30:29.827Z,12.85
2022-08-18T15:33:03.201Z,13.50
2022-08-18T15:35:31.598Z,14.73
2022-08-18T15:38:00.643Z,14.40
2022-08-18T15:41:09.359Z,13.20
2022-08-18T15:43:45.937Z,12.85
2022-08-18T15:46:16.872Z,14.18
2022-08-18T15:48:46.476Z,15.30
2022-08-18T15:51:14.539Z,16.95
2022-08-18T15:53:45.696Z,17.35
2022-08-18T15:56:16.605Z,15.25
2022-08-18T15:58:49.342Z,15.50
2022-08-18T16:01:29.701Z,16.60
2022-08-18T16:03:59.756Z,17.98
2022-08-18T16:06:32.518Z,18.98
2022-08-18T16:09:02.182Z,19.38
2022-08-18T16:11:31.713Z,18.42
2022-08-18T16:13:59.952Z,22.55
2022-08-18T16:16:29.263Z,21.15
2022-08-18T16:19:06.956Z,19.77
2022-08-18T16:21:40.247Z,20.17
2022-08-18T16:24:09.279Z,20.60
2022-08-18T16:26:37.510Z,18.50
2022-08-18T16:29:05.622Z,17.38
2022-08-18T16:31:33.862Z,18.88
2022-08-18T16:34:01.829Z,17.73
2022-08-18T16:36:31.265Z,17.42
2022-08-18T16:38:59.418Z,8.85
2022-08-18T16:41:27.913Z,6.38
2022-08-18T16:43:56.215Z,3.45
2022-08-18T16:46:27.687Z,7.32
2022-08-18T16:48:56.529Z,2.95
2022-08-18T16:51:27.645Z,3.22
2022-08-18T16:53:57.362Z,2.63
2022-08-18T16:56:27.697Z,4.80
2022-08-18T16:59:13.642Z,5.57
2022-08-18T17:02:09.313Z,7.18
2022-08-18T17:04:37.604Z,9.00
2022-08-18T17:07:07.516Z,5.53
2022-08-18T17:09:37.348Z,8.77
2022-08-18T17:12:06.298Z,3.53
2022-08-18T17:14:34.556Z,5.00
2022-08-18T17:17:02.697Z,3.60
2022-08-18T17:19:33.650Z,6.28
2022-08-18T17:22:01.961Z,4.10
2022-08-18T17:24:32.257Z,5.15
2022-08-18T17:27:25.668Z,6.93
2022-08-18T17:30:01.579Z,5.13
2022-08-18T17:35:09.954Z,4.95
2022-08-18T17:37:41.231Z,0.75
2022-08-18T17:40:17.502Z,2.17
2022-08-18T17:42:51.539Z,3.10
2022-08-18T17:45:21.776Z,1.35
2022-08-18T17:47:56.756Z,1.50
2022-08-18T17:50:46.679Z,6.22
2022-08-18T17:53:15.668Z,2.30
2022-08-18T17:55:48.420Z,3.35
2022-08-18T17:58:24.518Z,2.95
2022-08-18T18:00:52.662Z,9.40
2022-08-18T18:03:20.673Z,4.47
2022-08-18T18:05:52.697Z,1.20
2022-08-18T18:08:21.043Z,1.83
2022-08-18T18:11:03.863Z,2.05
2022-08-18T18:13:34.966Z,3.50
2022-08-18T18:16:20.798Z,3.13
2022-08-18T18:19:00.909Z,3.95
2022-08-18T18:21:55.328Z,3.90
2022-08-18T18:24:29.468Z,5.10
2022-08-18T18:26:57.978Z,5.13
2022-08-18T18:29:33.374Z,2.03
2022-08-18T18:32:07.057Z,2.65
2022-08-18T18:34:39.088Z,3.60
2022-08-18T18:37:23.788Z,4.05
2022-08-18T18:39:58.236Z,6.20
2022-08-18T18:42:29.217Z,6.63
2022-08-18T18:45:00.191Z,6.45
2022-08-18T18:47:50.351Z,8.32
2022-08-18T18:50:27.145Z,10.85
2022-08-18T18:53:09.056Z,14.18
2022-08-18T18:55:44.880Z,11.77
2022-08-18T18:58:25.016Z,11.73
2022-08-18T19:01:00.133Z,13.93
2022-08-18T19:03:37.577Z,14.35
2022-08-18T19:06:19.043Z,15.38
2022-08-18T19:08:57.873Z,16.50
2022-08-18T19:11:30.593Z,16.10
2022-08-18T19:14:03.022Z,17.00
2022-08-18T19:16:42.089Z,16.85
2022-08-18T19:19:37.921Z,18.38
2022-08-18T19:22:11.089Z,19.50
2022-08-18T19:24:45.582Z,18.88
2022-08-18T19:27:23.249Z,20.95
2022-08-18T19:29:55.317Z,20.23
2022-08-18T19:32:35.343Z,19.50
2022-08-18T19:35:12.214Z,22.52
2022-08-18T19:38:04.776Z,20.30
2022-08-18T19:40:42.736Z,20.15
2022-08-18T19:43:15.896Z,16.17
2022-08-18T19:45:49.845Z,16.20
2022-08-18T19:48:26.431Z,14.90
2022-08-18T19:50:59.057Z,15.00
2022-08-18T19:53:48.228Z,14.23
2022-08-18T19:59:17.802Z,16.38
2022-08-18T20:01:58.143Z,19.25
2022-08-18T20:04:44.493Z,15.07
2022-08-18T20:07:28.498Z,11.02
2022-08-18T20:10:09.642Z,11.18
2022-08-18T20:12:55.636Z,9.40
2022-08-18T20:15:26.405Z,8.50
2022-08-18T20:18:05.743Z,8.43
2022-08-18T20:20:38.613Z,7.65
2022-08-18T20:23:32.504Z,7.07
2022-08-18T20:26:00.598Z,7.78
2022-08-18T20:28:38.239Z,7.22
2022-08-18T20:31:19.699Z,8.82
2022-08-18T20:34:12.247Z,6.43
2022-08-18T20:36:45.484Z,7.47
2022-08-18T20:39:42.542Z,5.80
2022-08-18T20:42:51.562Z,6.20
2022-08-18T20:45:29.336Z,6.88
2022-08-18T20:48:10.985Z,5.60
2022-08-18T20:51:09.989Z,5.20
2022-08-18T20:54:09.272Z,4.57
2022-08-18T20:56:46.447Z,4.60
2022-08-18T20:59:20.090Z,6.90
2022-08-18T21:02:00.736Z,3.70
2022-08-18T21:04:46.249Z,2.85
2022-08-18T21:07:19.583Z,2.45
2022-08-18T21:10:13.003Z,2.45
2022-08-18T21:12:52.542Z,2.78
2022-08-18T21:15:24.026Z,3.55
2022-08-18T21:17:59.043Z,2.72
2022-08-18T21:20:28.484Z,3.35
2022-08-18T21:23:04.478Z,3.35
2022-08-18T21:25:34.322Z,2.75
2022-08-18T21:28:03.925Z,3.60
2022-08-18T21:30:32.711Z,4.18
2022-08-18T21:33:02.183Z,3.95
2022-08-18T21:35:33.474Z,3.92
2022-08-18T21:38:03.976Z,3.50
2022-08-18T21:40:43.368Z,4.72
2022-08-18T21:43:14.385Z,4.88
2022-08-18T21:45:53.042Z,3.65
2022-08-18T21:48:23.833Z,3.90
2022-08-18T21:50:54.475Z,5.80
2022-08-18T21:53:28.245Z,4.70
2022-08-18T21:55:58.884Z,4.63
2022-08-18T21:58:33.842Z,5.30
2022-08-18T22:01:16.099Z,6.25
2022-08-18T22:03:53.667Z,6.25
2022-08-18T22:06:29.731Z,5.72
2022-08-18T22:09:21.229Z,5.43
2022-08-18T22:12:28.194Z,5.57
2022-08-18T22:15:07.857Z,6.85
2022-08-18T22:17:44.905Z,8.05
2022-08-18T22:20:42.313Z,6.10
2022-08-18T22:23:50.669Z,6.70
2022-08-18T22:26:22.157Z,5.65
2022-08-18T22:28:55.474Z,6.22
2022-08-18T22:31:26.472Z,7.80
2022-08-18T22:33:55.437Z,8.43
2022-08-18T22:36:29.289Z,6.38
2022-08-18T22:38:57.422Z,7.25
2022-08-18T22:41:26.030Z,6.93
2022-08-18T22:43:55.497Z,6.80
2022-08-18T22:46:25.752Z,6.85
2022-08-18T22:48:54.305Z,7.97
2022-08-18T22:51:24.277Z,8.52
2022-08-18T22:53:53.059Z,8.10
2022-08-18T22:56:22.752Z,8.02
2022-08-18T22:59:03.187Z,7.68
2022-08-18T23:01:45.376Z,7.60
2022-08-18T23:04:13.539Z,9.02
2022-08-18T23:06:41.831Z,10.35
2022-08-18T23:09:09.878Z,10.27
2022-08-18T23:11:37.887Z,10.48
2022-08-18T23:14:06.232Z,9.13
2022-08-18T23:16:34.346Z,10.90
2022-08-18T23:19:03.745Z,13.43
2022-08-18T23:21:34.863Z,10.57
2022-08-18T23:24:04.661Z,10.27
2022-08-18T23:26:33.890Z,10.60
2022-08-18T23:29:02.060Z,11.93
2022-08-18T23:31:30.347Z,13.80
2022-08-18T23:34:00.714Z,11.40
2022-08-18T23:36:31.118Z,14.80
2022-08-18T23:38:59.130Z,12.77
2022-08-18T23:41:27.462Z,13.05
2022-08-18T23:43:55.523Z,15.40
2022-08-18T23:46:28.486Z,12.88
2022-08-18T23:48:58.589Z,12.40
2022-08-18T23:51:31.170Z,15.38
2022-08-18T23:54:02.191Z,14.02
2022-08-18T23:56:31.845Z,13.68
2022-08-18T23:59:00.652Z,14.50
